createdAt,value
2019-04-10T00:02:35.598Z,1008.40
2019-04-10T00:07:31.275Z,1008.43
2019-04-10T00:12:27.714Z,1008.38
2019-04-10T00:17:22.996Z,1008.46
2019-04-10T00:22:18.788Z,1008.41
2019-04-10T00:27:14.625Z,1008.50
2019-04-10T00:32:10.382Z,1008.41
2019-04-10T00:37:19.917Z,1008.52
2019-04-10T00:42:05.901Z,1008.51
2019-04-10T00:47:02.427Z,1008.54
2019-04-10T00:51:59.564Z,1008.59
2019-04-10T00:56:54.609Z,1008.45
2019-04-10T01:01:50.418Z,1008.46
2019-04-10T01:06:46.320Z,1008.52
2019-04-10T01:11:41.727Z,1008.51
2019-04-10T01:16:37.724Z,1008.55
2019-04-10T01:21:34.577Z,1008.49
2019-04-10T01:26:29.725Z,1008.54
2019-04-10T01:31:26.747Z,1008.50
2019-04-10T01:36:22.761Z,1008.65
2019-04-10T01:41:19.428Z,1008.56
2019-04-10T01:46:14.575Z,1008.59
2019-04-10T01:51:11.189Z,1008.53
2019-04-10T01:56:20.410Z,1008.48
2019-04-10T02:01:05.508Z,1008.59
2019-04-10T02:06:01.087Z,1008.55
2019-04-10T02:10:58.644Z,1008.56
2019-04-10T02:15:54.495Z,1008.56
2019-04-10T02:20:51.531Z,1008.65
2019-04-10T02:25:47.236Z,1008.75
2019-04-10T02:30:43.892Z,1008.59
2019-04-10T02:35:40.028Z,1008.77
2019-04-10T02:40:37.279Z,1008.60
2019-04-10T02:45:32.691Z,1008.67
2019-04-10T02:50:29.396Z,1008.69
2019-04-10T02:55:25.129Z,1008.59
2019-04-10T03:00:22.342Z,1008.55
2019-04-10T03:05:19.474Z,1008.58
2019-04-10T03:10:25.177Z,1008.62
2019-04-10T03:15:17.003Z,1008.75
2019-04-10T03:20:12.046Z,1008.71
2019-04-10T03:25:08.724Z,1008.62
2019-04-10T03:30:05.218Z,1008.63
2019-04-10T03:35:02.861Z,1008.67
2019-04-10T03:39:57.423Z,1008.57
2019-04-10T03:44:53.015Z,1008.55
2019-04-10T03:49:49.904Z,1008.61
2019-04-10T03:54:46.052Z,1008.67
2019-04-10T03:59:42.064Z,1008.79
2019-04-10T04:04:37.744Z,1008.79
2019-04-10T04:09:33.635Z,1008.68
2019-04-10T04:14:30.494Z,1008.86
2019-04-10T04:19:26.111Z,1008.84
2019-04-10T04:24:23.552Z,1008.85
2019-04-10T04:29:20.555Z,1008.82
2019-04-10T04:34:15.816Z,1008.93
2019-04-10T04:39:21.166Z,1008.96
2019-04-10T04:44:11.011Z,1009.00
2019-04-10T04:49:07.919Z,1009.00
2019-04-10T04:54:04.500Z,1009.12
2019-04-10T04:59:01.453Z,1009.27
2019-04-10T05:03:58.241Z,1009.26
2019-04-10T05:08:54.717Z,1009.28
2019-04-10T05:13:50.905Z,1009.41
2019-04-10T05:18:47.660Z,1009.45
2019-04-10T05:23:44.978Z,1009.48
2019-04-10T05:28:40.338Z,1009.52
2019-04-10T05:33:37.075Z,1009.67
2019-04-10T05:38:33.471Z,1009.86
2019-04-10T05:43:28.892Z,1009.79
2019-04-10T05:48:25.451Z,1009.89
2019-04-10T05:53:22.534Z,1009.94
2019-04-10T05:58:18.140Z,1009.96
2019-04-10T06:03:14.554Z,1010.06
2019-04-10T06:08:11.833Z,1010.10
2019-04-10T06:13:07.284Z,1010.07
2019-04-10T06:18:04.970Z,1010.15
2019-04-10T06:23:01.255Z,1010.04
2019-04-10T06:27:56.928Z,1010.06
2019-04-10T06:32:53.702Z,1010.15
2019-04-10T06:37:50.450Z,1010.15
2019-04-10T06:42:51.594Z,1010.19
2019-04-10T06:47:46.614Z,1010.19
2019-04-10T06:52:42.990Z,1010.15
2019-04-10T06:57:46.904Z,1010.20
2019-04-10T07:02:38.874Z,1010.28
2019-04-10T07:07:45.306Z,1010.40
2019-04-10T07:12:35.883Z,1010.34
2019-04-10T07:17:35.686Z,1010.32
2019-04-10T07:22:31.130Z,1010.29
2019-04-10T07:27:26.429Z,1010.28
2019-04-10T07:32:24.260Z,1010.28
2019-04-10T07:37:21.654Z,1010.36
2019-04-10T07:42:26.854Z,1010.32
2019-04-10T07:47:20.567Z,1010.34
2019-04-10T07:52:15.535Z,1010.39
2019-04-10T07:57:11.829Z,1010.41
2019-04-10T08:02:09.789Z,1010.44
2019-04-10T08:07:05.912Z,1010.56
2019-04-10T08:12:03.652Z,1010.49
2019-04-10T08:16:59.949Z,1010.51
2019-04-10T08:21:57.122Z,1010.57
2019-04-10T08:26:53.197Z,1010.49
2019-04-10T08:36:51.102Z,1010.57
2019-04-10T08:41:48.123Z,1010.58
2019-04-10T08:46:44.166Z,1010.55
2019-04-10T08:51:39.661Z,1010.59
2019-04-10T08:56:36.412Z,1010.59
2019-04-10T09:01:33.414Z,1010.63
2019-04-10T09:06:30.115Z,1010.55
2019-04-10T09:11:28.399Z,1010.65
2019-04-10T09:16:24.713Z,1010.55
2019-04-10T09:21:21.526Z,1010.69
2019-04-10T09:26:17.441Z,1010.69
2019-04-10T09:31:13.568Z,1010.61
2019-04-10T09:36:11.166Z,1010.67
2019-04-10T09:41:07.778Z,1010.64
2019-04-10T09:46:04.273Z,1010.59
2019-04-10T09:51:00.649Z,1010.55
2019-04-10T09:55:56.796Z,1010.50
2019-04-10T10:00:52.832Z,1010.48
2019-04-10T10:05:48.604Z,1010.63
2019-04-10T10:10:45.064Z,1010.70
2019-04-10T10:15:41.731Z,1010.52
2019-04-10T10:20:38.187Z,1010.47
2019-04-10T10:25:37.475Z,1010.64
2019-04-10T10:30:33.724Z,1010.54
2019-04-10T10:35:31.330Z,1010.57
2019-04-10T10:40:29.754Z,1010.53
2019-04-10T10:45:25.515Z,1010.54
2019-04-10T10:50:23.565Z,1010.61
2019-04-10T10:55:21.028Z,1010.54
2019-04-10T11:00:17.133Z,1010.54
2019-04-10T11:05:13.091Z,1010.49
2019-04-10T11:10:09.485Z,1010.59
2019-04-10T11:15:05.913Z,1010.57
2019-04-10T11:20:02.767Z,1010.66
2019-04-10T11:25:00.202Z,1010.71
2019-04-10T11:29:55.079Z,1010.70
2019-04-10T11:34:52.885Z,1010.77
2019-04-10T11:39:50.740Z,1010.66
2019-04-10T11:44:49.262Z,1010.71
2019-04-10T11:49:47.141Z,1010.61
2019-04-10T11:54:44.921Z,1010.75
2019-04-10T11:59:43.955Z,1010.69
2019-04-10T12:04:49.212Z,1010.75
2019-04-10T12:14:37.408Z,1010.63
2019-04-10T12:19:33.267Z,1010.73
2019-04-10T12:24:30.110Z,1010.66
2019-04-10T12:29:26.728Z,1010.74
2019-04-10T12:34:22.329Z,1010.80
2019-04-10T12:39:18.364Z,1010.78
2019-04-10T12:44:15.850Z,1010.79
2019-04-10T12:49:11.604Z,1010.85
2019-04-10T12:54:07.944Z,1010.89
2019-04-10T12:59:03.438Z,1010.85
2019-04-10T13:04:00.125Z,1010.86
2019-04-10T13:09:03.278Z,1010.68
2019-04-10T13:13:55.568Z,1010.65
2019-04-10T13:18:52.347Z,1010.82
2019-04-10T13:23:47.594Z,1010.83
2019-04-10T13:28:43.955Z,1010.89
2019-04-10T13:33:40.628Z,1010.79
2019-04-10T13:38:36.942Z,1010.76
2019-04-10T13:43:33.884Z,1010.75
2019-04-10T13:48:29.702Z,1010.73
2019-04-10T13:53:25.936Z,1010.75
2019-04-10T13:58:21.409Z,1010.82
2019-04-10T14:03:18.401Z,1010.75
2019-04-10T14:08:14.678Z,1010.84
2019-04-10T14:13:11.599Z,1010.83
2019-04-10T14:18:08.258Z,1010.70
2019-04-10T14:23:04.713Z,1010.79
2019-04-10T14:28:00.580Z,1010.81
2019-04-10T14:32:56.635Z,1010.74
2019-04-10T14:37:52.510Z,1010.79
2019-04-10T14:42:49.499Z,1010.87
2019-04-10T14:47:44.536Z,1011.01
2019-04-10T14:52:41.140Z,1010.94
2019-04-10T14:57:37.078Z,1010.98
2019-04-10T15:02:34.724Z,1010.95
2019-04-10T15:07:31.050Z,1011.05
2019-04-10T15:12:26.503Z,1010.91
2019-04-10T15:17:23.113Z,1011.03
2019-04-10T15:22:19.974Z,1010.97
2019-04-10T15:27:15.471Z,1010.98
2019-04-10T15:32:12.684Z,1011.26
2019-04-10T15:37:08.858Z,1011.05
2019-04-10T15:42:04.258Z,1011.15
2019-04-10T15:47:13.658Z,1011.16
2019-04-10T15:52:05.714Z,1011.23
2019-04-10T15:57:02.653Z,1011.26
2019-04-10T16:01:59.404Z,1011.24
2019-04-10T16:06:56.050Z,1011.23
2019-04-10T16:11:52.555Z,1011.21
2019-04-10T16:16:49.322Z,1011.30
2019-04-10T16:21:45.796Z,1011.29
2019-04-10T16:26:45.411Z,1011.42
2019-04-10T16:31:40.260Z,1011.28
2019-04-10T16:36:37.422Z,1011.28
2019-04-10T16:41:33.649Z,1011.31
2019-04-10T16:46:29.904Z,1011.42
2019-04-10T16:51:25.977Z,1011.50
2019-04-10T16:56:21.303Z,1011.58
2019-04-10T17:01:16.729Z,1011.54
2019-04-10T17:06:12.953Z,1011.60
2019-04-10T17:11:09.177Z,1011.53
2019-04-10T17:16:05.892Z,1011.65
2019-04-10T17:21:02.564Z,1011.62
2019-04-10T17:25:58.279Z,1011.62
2019-04-10T17:30:54.005Z,1011.77
2019-04-10T17:35:49.649Z,1011.76
2019-04-10T17:40:50.598Z,1011.76
2019-04-10T17:45:44.825Z,1011.80
2019-04-10T17:50:41.493Z,1011.97
2019-04-10T17:55:37.726Z,1012.01
2019-04-10T18:00:33.785Z,1012.01
2019-04-10T18:05:30.881Z,1012.02
2019-04-10T18:10:30.449Z,1012.12
2019-04-10T18:15:26.063Z,1012.09
2019-04-10T18:20:22.037Z,1012.15
2019-04-10T18:25:20.083Z,1012.23
2019-04-10T18:30:16.175Z,1012.28
2019-04-10T18:35:12.831Z,1012.47
2019-04-10T18:40:08.104Z,1012.56
2019-04-10T18:45:03.768Z,1012.57
2019-04-10T18:50:00.950Z,1012.66
2019-04-10T18:54:58.398Z,1012.73
2019-04-10T18:59:53.367Z,1012.71
2019-04-10T19:04:49.555Z,1012.77
2019-04-10T19:09:45.613Z,1012.74
2019-04-10T19:14:42.559Z,1012.76
2019-04-10T19:19:41.798Z,1012.88
2019-04-10T19:24:38.261Z,1012.92
2019-04-10T19:29:35.280Z,1012.88
2019-04-10T19:34:31.721Z,1013.01
2019-04-10T19:39:27.044Z,1013.06
2019-04-10T19:44:23.487Z,1013.19
2019-04-10T19:49:19.729Z,1013.10
2019-04-10T19:54:16.059Z,1013.23
2019-04-10T19:59:14.526Z,1013.12
2019-04-10T20:04:12.433Z,1013.18
2019-04-10T20:09:12.474Z,1013.27
2019-04-10T20:14:08.388Z,1013.28
2019-04-10T20:19:07.625Z,1013.38
2019-04-10T20:24:06.214Z,1013.41
2019-04-10T20:29:02.396Z,1013.47
2019-04-10T20:33:59.063Z,1013.44
2019-04-10T20:38:57.342Z,1013.42
2019-04-10T20:43:57.989Z,1013.46
2019-04-10T20:49:00.589Z,1013.58
2019-04-10T20:54:00.783Z,1013.62
2019-04-10T20:58:55.735Z,1013.60
2019-04-10T21:03:59.540Z,1013.64
2019-04-10T21:08:58.790Z,1013.65
2019-04-10T21:14:05.437Z,1013.76
2019-04-10T21:19:06.742Z,1013.84
2019-04-10T21:24:04.917Z,1013.86
2019-04-10T21:29:00.755Z,1013.90
2019-04-10T21:33:57.055Z,1013.85
2019-04-10T21:38:58.463Z,1013.87
2019-04-10T21:43:52.358Z,1013.97
2019-04-10T21:48:48.830Z,1013.97
2019-04-10T21:53:45.240Z,1014.04
2019-04-10T21:58:41.724Z,1014.04
2019-04-10T22:03:37.976Z,1013.97
2019-04-10T22:08:33.641Z,1014.00
2019-04-10T22:13:29.975Z,1014.01
2019-04-10T22:18:25.748Z,1014.12
2019-04-10T22:23:22.366Z,1014.16
2019-04-10T22:28:17.682Z,1014.05
2019-04-10T22:33:14.055Z,1014.08
2019-04-10T22:38:09.425Z,1014.07
2019-04-10T22:43:05.868Z,1014.09
2019-04-10T22:48:01.362Z,1014.07
2019-04-10T22:52:57.076Z,1014.11
2019-04-10T22:57:54.746Z,1014.19
2019-04-10T23:02:50.599Z,1014.22
2019-04-10T23:07:47.268Z,1014.20
2019-04-10T23:12:52.258Z,1014.27
2019-04-10T23:17:43.133Z,1014.17
2019-04-10T23:22:38.555Z,1014.20
2019-04-10T23:27:35.636Z,1014.17
2019-04-10T23:32:31.183Z,1014.27
2019-04-10T23:37:26.812Z,1014.28
2019-04-10T23:42:23.293Z,1014.31
2019-04-10T23:47:22.570Z,1014.36
2019-04-10T23:52:18.313Z,1014.35
2019-04-10T23:57:13.688Z,1014.41
